Terminal Aerodrome Forecast
Issued by NWS

Home | Current Version | Previous Version | Graphics & Text | Print | Product List | Glossary On
Versions: 1 2 3 4 5 6 7 8 9 10 11 12 13 14
000
FTUS43 KGRB 131700
TAFATW
TAF
KATW 131740Z 1318/1418 35006KT P6SM BKN030
     FM132100 23004KT P6SM SCT040
     FM140000 20004KT P6SM FEW050
     FM140900 21003KT P6SM SCT250
     FM141600 22010KT P6SM SCT120 BKN250=

USA.gov is the U.S. government's official web portal to all federal, state and local government web resources and services.